sensor_id;sensor_type;location;lat;lon;timestamp;pressure;altitude;pressure_sealevel;temperature;humidity
50682;BME280;36779;52.168;20.878;2023-07-31T00:00:35;99858.05;;;17.56;59.01
50682;BME280;36779;52.168;20.878;2023-07-31T00:03:26;99861.73;;;17.48;59.00
50682;BME280;36779;52.168;20.878;2023-07-31T00:05:59;99862.27;;;17.43;59.07
50682;BME280;36779;52.168;20.878;2023-07-31T00:08:33;99862.27;;;17.37;58.93
50682;BME280;36779;52.168;20.878;2023-07-31T00:11:13;99863.98;;;17.34;59.26
50682;BME280;36779;52.168;20.878;2023-07-31T00:13:47;99867.52;;;17.34;59.22
50682;BME280;36779;52.168;20.878;2023-07-31T00:16:18;99875.63;;;17.36;59.38
50682;BME280;36779;52.168;20.878;2023-07-31T00:18:50;99871.20;;;17.38;59.27
50682;BME280;36779;52.168;20.878;2023-07-31T00:21:21;99875.10;;;17.39;59.39
50682;BME280;36779;52.168;20.878;2023-07-31T00:23:51;99869.83;;;17.39;59.43
50682;BME280;36779;52.168;20.878;2023-07-31T00:26:38;99875.27;;;17.43;59.42
50682;BME280;36779;52.168;20.878;2023-07-31T00:29:09;99868.67;;;17.45;59.50
50682;BME280;36779;52.168;20.878;2023-07-31T00:31:40;99869.50;;;17.49;59.65
50682;BME280;36779;52.168;20.878;2023-07-31T00:34:11;99861.23;;;17.53;59.72
50682;BME280;36779;52.168;20.878;2023-07-31T00:36:42;99858.05;;;17.56;59.69
50682;BME280;36779;52.168;20.878;2023-07-31T00:39:13;99853.13;;;17.58;59.84
50682;BME280;36779;52.168;20.878;2023-07-31T00:41:44;99851.21;;;17.55;59.71
50682;BME280;36779;52.168;20.878;2023-07-31T00:44:21;99853.12;;;17.51;59.71
50682;BME280;36779;52.168;20.878;2023-07-31T00:46:51;99850.15;;;17.48;59.58
50682;BME280;36779;52.168;20.878;2023-07-31T00:52:46;99853.66;;;17.41;59.75
50682;BME280;36779;52.168;20.878;2023-07-31T00:55:37;99856.81;;;17.35;59.64
50682;BME280;36779;52.168;20.878;2023-07-31T00:58:08;99854.77;;;17.32;59.80
50682;BME280;36779;52.168;20.878;2023-07-31T01:00:42;99858.95;;;17.26;59.72
50682;BME280;36779;52.168;20.878;2023-07-31T01:03:14;99860.86;;;17.26;60.02
50682;BME280;36779;52.168;20.878;2023-07-31T01:05:50;99862.06;;;17.20;59.71
50682;BME280;36779;52.168;20.878;2023-07-31T01:08:29;99859.74;;;17.08;59.70
50682;BME280;36779;52.168;20.878;2023-07-31T01:11:15;99865.42;;;17.00;59.76
50682;BME280;36779;52.168;20.878;2023-07-31T01:13:47;99866.45;;;16.94;59.73
50682;BME280;36779;52.168;20.878;2023-07-31T01:16:19;99865.88;;;16.86;59.93
50682;BME280;36779;52.168;20.878;2023-07-31T01:18:51;99864.97;;;16.79;59.84
50682;BME280;36779;52.168;20.878;2023-07-31T01:21:27;99866.39;;;16.75;59.88
50682;BME280;36779;52.168;20.878;2023-07-31T01:24:23;99860.58;;;16.71;60.02
50682;BME280;36779;52.168;20.878;2023-07-31T01:27:04;99858.24;;;16.67;60.13
50682;BME280;36779;52.168;20.878;2023-07-31T01:29:42;99863.34;;;16.64;60.12
50682;BME280;36779;52.168;20.878;2023-07-31T01:32:16;99863.68;;;16.64;60.13
50682;BME280;36779;52.168;20.878;2023-07-31T01:34:48;99865.48;;;16.62;60.13
50682;BME280;36779;52.168;20.878;2023-07-31T01:37:21;99864.50;;;16.60;60.07
50682;BME280;36779;52.168;20.878;2023-07-31T01:39:53;99860.99;;;16.62;60.23
50682;BME280;36779;52.168;20.878;2023-07-31T01:42:26;99865.83;;;16.64;60.29
50682;BME280;36779;52.168;20.878;2023-07-31T01:44:58;99870.58;;;16.69;60.48
50682;BME280;36779;52.168;20.878;2023-07-31T01:47:35;99870.48;;;16.73;60.52
50682;BME280;36779;52.168;20.878;2023-07-31T01:50:07;99872.92;;;16.74;60.55
50682;BME280;36779;52.168;20.878;2023-07-31T01:52:47;99872.73;;;16.76;60.51
50682;BME280;36779;52.168;20.878;2023-07-31T01:55:17;99878.13;;;16.78;60.45
50682;BME280;36779;52.168;20.878;2023-07-31T01:57:50;99881.02;;;16.78;60.54
50682;BME280;36779;52.168;20.878;2023-07-31T02:00:22;99879.03;;;16.81;60.62
50682;BME280;36779;52.168;20.878;2023-07-31T02:02:53;99878.34;;;16.81;60.74
50682;BME280;36779;52.168;20.878;2023-07-31T02:05:28;99875.71;;;16.83;60.80
50682;BME280;36779;52.168;20.878;2023-07-31T02:08:01;99875.34;;;16.83;60.89
50682;BME280;36779;52.168;20.878;2023-07-31T02:10:36;99872.83;;;16.83;60.84
50682;BME280;36779;52.168;20.878;2023-07-31T02:13:08;99871.27;;;16.79;60.73
50682;BME280;36779;52.168;20.878;2023-07-31T02:15:42;99874.65;;;16.79;60.95
50682;BME280;36779;52.168;20.878;2023-07-31T02:18:16;99883.23;;;16.85;61.05
50682;BME280;36779;52.168;20.878;2023-07-31T02:20:50;99886.27;;;16.90;60.88
50682;BME280;36779;52.168;20.878;2023-07-31T02:23:24;99891.31;;;16.92;61.14
50682;BME280;36779;52.168;20.878;2023-07-31T02:25:54;99892.96;;;16.92;61.07
50682;BME280;36779;52.168;20.878;2023-07-31T02:28:28;99893.04;;;16.92;61.07
50682;BME280;36779;52.168;20.878;2023-07-31T02:31:13;99895.27;;;16.89;61.01
50682;BME280;36779;52.168;20.878;2023-07-31T02:33:45;99895.84;;;16.89;60.95
50682;BME280;36779;52.168;20.878;2023-07-31T02:36:16;99898.84;;;16.87;61.13
50682;BME280;36779;52.168;20.878;2023-07-31T02:38:49;99900.54;;;16.87;61.17
50682;BME280;36779;52.168;20.878;2023-07-31T02:41:22;99905.16;;;16.89;61.26
50682;BME280;36779;52.168;20.878;2023-07-31T02:43:53;99908.09;;;16.92;61.32
50682;BME280;36779;52.168;20.878;2023-07-31T02:46:24;99905.17;;;16.97;61.45
50682;BME280;36779;52.168;20.878;2023-07-31T02:48:59;99899.17;;;17.01;61.46
50682;BME280;36779;52.168;20.878;2023-07-31T02:51:30;99890.77;;;17.02;61.42
50682;BME280;36779;52.168;20.878;2023-07-31T02:54:05;99889.98;;;17.00;61.38
50682;BME280;36779;52.168;20.878;2023-07-31T02:56:40;99890.52;;;17.01;61.41
50682;BME280;36779;52.168;20.878;2023-07-31T02:59:12;99893.36;;;17.04;61.64
50682;BME280;36779;52.168;20.878;2023-07-31T03:01:46;99898.80;;;17.09;61.57
50682;BME280;36779;52.168;20.878;2023-07-31T03:04:17;99898.45;;;17.13;61.68
50682;BME280;36779;52.168;20.878;2023-07-31T03:06:47;99896.52;;;17.19;61.63
50682;BME280;36779;52.168;20.878;2023-07-31T03:09:18;99896.00;;;17.20;61.53
50682;BME280;36779;52.168;20.878;2023-07-31T03:11:50;99894.39;;;17.18;61.51
50682;BME280;36779;52.168;20.878;2023-07-31T03:14:23;99892.73;;;17.20;61.64
50682;BME280;36779;52.168;20.878;2023-07-31T03:17:02;99900.82;;;17.19;61.54
50682;BME280;36779;52.168;20.878;2023-07-31T03:19:47;99899.89;;;17.19;61.68
50682;BME280;36779;52.168;20.878;2023-07-31T03:22:20;99903.50;;;17.18;61.71
50682;BME280;36779;52.168;20.878;2023-07-31T03:24:50;99911.66;;;17.19;61.79
50682;BME280;36779;52.168;20.878;2023-07-31T03:27:21;99910.14;;;17.20;61.75
50682;BME280;36779;52.168;20.878;2023-07-31T03:29:52;99914.27;;;17.20;61.83
50682;BME280;36779;52.168;20.878;2023-07-31T03:32:23;99915.44;;;17.19;61.72
50682;BME280;36779;52.168;20.878;2023-07-31T03:34:56;99916.42;;;17.18;61.70
50682;BME280;36779;52.168;20.878;2023-07-31T03:37:31;99919.70;;;17.18;61.94
50682;BME280;36779;52.168;20.878;2023-07-31T03:40:02;99919.13;;;17.17;61.74
50682;BME280;36779;52.168;20.878;2023-07-31T03:42:37;99922.38;;;17.16;61.82
50682;BME280;36779;52.168;20.878;2023-07-31T03:45:14;99925.20;;;17.16;61.84
50682;BME280;36779;52.168;20.878;2023-07-31T03:47:48;99930.27;;;17.17;61.76
50682;BME280;36779;52.168;20.878;2023-07-31T03:50:25;99933.40;;;17.16;61.79
50682;BME280;36779;52.168;20.878;2023-07-31T03:53:02;99940.22;;;17.18;61.77
50682;BME280;36779;52.168;20.878;2023-07-31T03:55:33;99936.32;;;17.20;61.82
50682;BME280;36779;52.168;20.878;2023-07-31T03:58:05;99936.91;;;17.22;61.69
50682;BME280;36779;52.168;20.878;2023-07-31T04:00:54;99936.78;;;17.25;61.87
50682;BME280;36779;52.168;20.878;2023-07-31T04:03:24;99936.63;;;17.29;61.96
50682;BME280;36779;52.168;20.878;2023-07-31T04:05:59;99939.38;;;17.34;61.92
50682;BME280;36779;52.168;20.878;2023-07-31T04:08:38;99941.01;;;17.38;62.01
50682;BME280;36779;52.168;20.878;2023-07-31T04:11:17;99946.08;;;17.41;62.01
50682;BME280;36779;52.168;20.878;2023-07-31T04:13:47;99949.20;;;17.46;62.05
50682;BME280;36779;52.168;20.878;2023-07-31T04:16:18;99946.94;;;17.49;62.04
50682;BME280;36779;52.168;20.878;2023-07-31T04:18:51;99949.98;;;17.52;61.94
50682;BME280;36779;52.168;20.878;2023-07-31T04:21:24;99951.30;;;17.55;62.04
50682;BME280;36779;52.168;20.878;2023-07-31T04:24:02;99954.15;;;17.56;62.04
50682;BME280;36779;52.168;20.878;2023-07-31T04:26:38;99955.10;;;17.57;62.12
50682;BME280;36779;52.168;20.878;2023-07-31T04:29:13;99953.46;;;17.59;62.07
50682;BME280;36779;52.168;20.878;2023-07-31T04:31:45;99956.57;;;17.58;62.10
50682;BME280;36779;52.168;20.878;2023-07-31T04:34:16;99958.83;;;17.58;62.11
50682;BME280;36779;52.168;20.878;2023-07-31T04:36:46;99958.41;;;17.56;62.14
50682;BME280;36779;52.168;20.878;2023-07-31T04:39:17;99959.19;;;17.52;61.98
50682;BME280;36779;52.168;20.878;2023-07-31T04:41:49;99963.61;;;17.49;62.06
50682;BME280;36779;52.168;20.878;2023-07-31T04:44:26;99962.92;;;17.47;62.08
50682;BME280;36779;52.168;20.878;2023-07-31T04:47:03;99965.25;;;17.45;62.05
50682;BME280;36779;52.168;20.878;2023-07-31T04:49:35;99965.77;;;17.46;62.25
50682;BME280;36779;52.168;20.878;2023-07-31T04:52:11;99965.29;;;17.45;62.23
50682;BME280;36779;52.168;20.878;2023-07-31T04:54:44;99965.00;;;17.46;62.12
50682;BME280;36779;52.168;20.878;2023-07-31T04:57:18;99963.09;;;17.47;62.25
50682;BME280;36779;52.168;20.878;2023-07-31T04:59:51;99965.57;;;17.47;62.12
50682;BME280;36779;52.168;20.878;2023-07-31T05:02:27;99965.51;;;17.48;62.26
50682;BME280;36779;52.168;20.878;2023-07-31T05:04:59;99970.17;;;17.52;62.34
50682;BME280;36779;52.168;20.878;2023-07-31T05:07:34;99972.05;;;17.57;62.34
50682;BME280;36779;52.168;20.878;2023-07-31T05:10:17;99975.58;;;17.62;62.34
50682;BME280;36779;52.168;20.878;2023-07-31T05:12:51;99973.27;;;17.67;62.28
50682;BME280;36779;52.168;20.878;2023-07-31T05:15:35;99971.36;;;17.73;62.34
50682;BME280;36779;52.168;20.878;2023-07-31T05:18:06;99972.10;;;17.77;62.30
50682;BME280;36779;52.168;20.878;2023-07-31T05:20:40;99970.31;;;17.79;62.27
50682;BME280;36779;52.168;20.878;2023-07-31T05:23:12;99974.10;;;17.82;62.41
50682;BME280;36779;52.168;20.878;2023-07-31T05:25:42;99974.35;;;17.88;62.39
50682;BME280;36779;52.168;20.878;2023-07-31T05:28:13;99973.63;;;17.94;62.38
50682;BME280;36779;52.168;20.878;2023-07-31T05:30:44;99978.23;;;17.99;62.45
50682;BME280;36779;52.168;20.878;2023-07-31T05:33:16;99986.31;;;18.04;62.43
50682;BME280;36779;52.168;20.878;2023-07-31T05:35:47;99989.30;;;18.06;62.45
50682;BME280;36779;52.168;20.878;2023-07-31T05:38:17;99990.39;;;18.08;62.31
50682;BME280;36779;52.168;20.878;2023-07-31T05:40:51;99992.80;;;18.09;62.36
50682;BME280;36779;52.168;20.878;2023-07-31T05:43:21;99995.83;;;18.04;62.17
50682;BME280;36779;52.168;20.878;2023-07-31T05:45:52;99995.11;;;18.01;62.28
50682;BME280;36779;52.168;20.878;2023-07-31T05:48:23;99999.86;;;18.01;62.45
50682;BME280;36779;52.168;20.878;2023-07-31T05:50:54;99996.42;;;18.02;62.43
50682;BME280;36779;52.168;20.878;2023-07-31T05:53:24;99998.33;;;18.02;62.35
50682;BME280;36779;52.168;20.878;2023-07-31T05:55:55;100006.12;;;18.04;62.44
50682;BME280;36779;52.168;20.878;2023-07-31T05:58:27;100007.27;;;18.06;62.28
50682;BME280;36779;52.168;20.878;2023-07-31T06:01:00;100010.36;;;18.08;62.38
50682;BME280;36779;52.168;20.878;2023-07-31T06:03:31;100012.75;;;18.15;62.52
50682;BME280;36779;52.168;20.878;2023-07-31T06:06:11;100017.02;;;18.20;62.35
50682;BME280;36779;52.168;20.878;2023-07-31T06:08:42;100020.77;;;18.22;62.39
50682;BME280;36779;52.168;20.878;2023-07-31T06:11:21;100024.23;;;18.26;62.39
50682;BME280;36779;52.168;20.878;2023-07-31T06:13:54;100023.34;;;18.28;62.35
50682;BME280;36779;52.168;20.878;2023-07-31T06:16:25;100023.23;;;18.30;62.36
50682;BME280;36779;52.168;20.878;2023-07-31T06:18:57;100024.45;;;18.29;62.47
50682;BME280;36779;52.168;20.878;2023-07-31T06:21:29;100017.98;;;18.32;62.48
50682;BME280;36779;52.168;20.878;2023-07-31T06:24:02;100019.74;;;18.31;62.40
50682;BME280;36779;52.168;20.878;2023-07-31T06:26:33;100024.48;;;18.30;62.49
50682;BME280;36779;52.168;20.878;2023-07-31T06:29:06;100023.83;;;18.30;62.54
50682;BME280;36779;52.168;20.878;2023-07-31T06:31:37;100023.89;;;18.27;62.38
50682;BME280;36779;52.168;20.878;2023-07-31T06:34:08;100025.73;;;18.24;62.52
50682;BME280;36779;52.168;20.878;2023-07-31T06:36:42;100018.41;;;18.23;62.41
50682;BME280;36779;52.168;20.878;2023-07-31T06:39:15;100019.55;;;18.20;62.56
50682;BME280;36779;52.168;20.878;2023-07-31T06:41:45;100019.75;;;18.21;62.65
50682;BME280;36779;52.168;20.878;2023-07-31T06:44:16;100024.45;;;18.21;62.65
50682;BME280;36779;52.168;20.878;2023-07-31T06:46:48;100026.98;;;18.19;62.55
50682;BME280;36779;52.168;20.878;2023-07-31T06:49:19;100029.90;;;18.17;62.50
50682;BME280;36779;52.168;20.878;2023-07-31T06:51:50;100034.32;;;18.16;62.64
50682;BME280;36779;52.168;20.878;2023-07-31T06:54:24;100035.98;;;18.14;62.52
50682;BME280;36779;52.168;20.878;2023-07-31T06:56:55;100034.01;;;18.13;62.53
50682;BME280;36779;52.168;20.878;2023-07-31T06:59:26;100030.17;;;18.15;62.65
50682;BME280;36779;52.168;20.878;2023-07-31T07:01:59;100029.52;;;18.18;62.62
50682;BME280;36779;52.168;20.878;2023-07-31T07:04:42;100027.85;;;18.22;62.52
50682;BME280;36779;52.168;20.878;2023-07-31T07:07:13;100029.89;;;18.24;62.46
50682;BME280;36779;52.168;20.878;2023-07-31T07:09:44;100025.34;;;18.32;62.68
50682;BME280;36779;52.168;20.878;2023-07-31T07:12:15;100031.90;;;18.49;62.80
50682;BME280;36779;52.168;20.878;2023-07-31T07:14:45;100028.41;;;18.72;62.97
50682;BME280;36779;52.168;20.878;2023-07-31T07:17:17;100028.74;;;18.95;62.91
50682;BME280;36779;52.168;20.878;2023-07-31T07:19:48;100030.13;;;19.12;62.85
50682;BME280;36779;52.168;20.878;2023-07-31T07:22:22;100029.70;;;19.33;62.95
50682;BME280;36779;52.168;20.878;2023-07-31T07:24:54;100030.89;;;19.55;63.02
50682;BME280;36779;52.168;20.878;2023-07-31T07:27:25;100035.27;;;19.79;63.15
50682;BME280;36779;52.168;20.878;2023-07-31T07:29:55;100031.54;;;20.00;62.99
50682;BME280;36779;52.168;20.878;2023-07-31T07:32:26;100023.54;;;20.18;62.87
50682;BME280;36779;52.168;20.878;2023-07-31T07:34:57;100021.23;;;20.37;62.95
50682;BME280;36779;52.168;20.878;2023-07-31T07:37:28;100025.10;;;20.56;62.90
50682;BME280;36779;52.168;20.878;2023-07-31T07:40:03;100011.60;;;20.72;62.67
50682;BME280;36779;52.168;20.878;2023-07-31T07:42:35;100010.15;;;20.85;62.61
50682;BME280;36779;52.168;20.878;2023-07-31T07:45:09;100014.48;;;20.93;62.37
50682;BME280;36779;52.168;20.878;2023-07-31T07:47:50;100016.57;;;20.97;62.24
50682;BME280;36779;52.168;20.878;2023-07-31T07:50:21;100020.02;;;21.02;62.17
50682;BME280;36779;52.168;20.878;2023-07-31T07:52:52;100023.07;;;21.05;62.14
50682;BME280;36779;52.168;20.878;2023-07-31T07:55:22;100022.66;;;21.11;62.02
50682;BME280;36779;52.168;20.878;2023-07-31T07:57:53;100026.80;;;21.21;62.12
50682;BME280;36779;52.168;20.878;2023-07-31T08:00:25;100027.72;;;21.31;62.06
50682;BME280;36779;52.168;20.878;2023-07-31T08:02:56;100025.25;;;21.42;61.99
50682;BME280;36779;52.168;20.878;2023-07-31T08:05:33;100020.92;;;21.55;61.95
50682;BME280;36779;52.168;20.878;2023-07-31T08:08:04;100019.97;;;21.71;61.95
50682;BME280;36779;52.168;20.878;2023-07-31T08:10:38;100017.35;;;21.79;61.67
50682;BME280;36779;52.168;20.878;2023-07-31T08:13:09;100018.80;;;21.82;61.49
50682;BME280;36779;52.168;20.878;2023-07-31T08:15:42;100013.60;;;21.89;61.64
50682;BME280;36779;52.168;20.878;2023-07-31T08:18:13;100021.04;;;22.02;61.51
50682;BME280;36779;52.168;20.878;2023-07-31T08:20:49;100017.26;;;22.09;61.40
50682;BME280;36779;52.168;20.878;2023-07-31T08:23:21;100016.56;;;22.14;61.30
50682;BME280;36779;52.168;20.878;2023-07-31T08:25:55;100016.16;;;22.18;61.31
50682;BME280;36779;52.168;20.878;2023-07-31T08:28:26;100013.48;;;22.27;61.34
50682;BME280;36779;52.168;20.878;2023-07-31T08:30:57;100014.40;;;22.37;61.26
50682;BME280;36779;52.168;20.878;2023-07-31T08:33:28;100019.05;;;22.47;61.29
50682;BME280;36779;52.168;20.878;2023-07-31T08:36:00;100015.89;;;22.55;61.15
50682;BME280;36779;52.168;20.878;2023-07-31T08:38:32;100014.84;;;22.60;61.01
50682;BME280;36779;52.168;20.878;2023-07-31T08:41:10;100016.15;;;22.65;60.91
50682;BME280;36779;52.168;20.878;2023-07-31T08:43:42;100014.52;;;22.71;60.75
50682;BME280;36779;52.168;20.878;2023-07-31T08:46:14;100011.74;;;22.76;60.76
50682;BME280;36779;52.168;20.878;2023-07-31T08:48:45;100014.89;;;22.80;60.51
50682;BME280;36779;52.168;20.878;2023-07-31T08:51:17;100011.20;;;22.85;60.50
50682;BME280;36779;52.168;20.878;2023-07-31T08:53:48;100014.56;;;22.92;60.29
50682;BME280;36779;52.168;20.878;2023-07-31T08:56:19;100012.15;;;22.97;60.28
50682;BME280;36779;52.168;20.878;2023-07-31T08:58:50;100012.29;;;23.03;60.25
50682;BME280;36779;52.168;20.878;2023-07-31T09:01:21;100013.30;;;23.16;60.17
50682;BME280;36779;52.168;20.878;2023-07-31T09:03:52;100015.66;;;23.28;60.09
50682;BME280;36779;52.168;20.878;2023-07-31T09:06:24;100012.28;;;23.46;60.15
50682;BME280;36779;52.168;20.878;2023-07-31T09:08:56;100015.30;;;23.69;60.07
50682;BME280;36779;52.168;20.878;2023-07-31T09:11:27;100016.08;;;23.93;59.98
50682;BME280;36779;52.168;20.878;2023-07-31T09:14:00;100019.39;;;24.20;59.96
50682;BME280;36779;52.168;20.878;2023-07-31T09:16:38;100021.73;;;24.47;59.66
50682;BME280;36779;52.168;20.878;2023-07-31T09:19:26;100019.13;;;24.78;59.42
50682;BME280;36779;52.168;20.878;2023-07-31T09:22:01;100017.13;;;25.03;59.33
50682;BME280;36779;52.168;20.878;2023-07-31T09:24:34;100014.91;;;25.40;59.39
50682;BME280;36779;52.168;20.878;2023-07-31T09:27:05;100014.41;;;25.61;58.89
50682;BME280;36779;52.168;20.878;2023-07-31T09:29:36;100008.23;;;25.77;58.52
50682;BME280;36779;52.168;20.878;2023-07-31T09:32:07;100011.04;;;25.93;58.53
50682;BME280;36779;52.168;20.878;2023-07-31T09:34:46;100007.97;;;26.12;58.00
50682;BME280;36779;52.168;20.878;2023-07-31T09:37:17;100006.61;;;26.08;57.72
50682;BME280;36779;52.168;20.878;2023-07-31T09:39:48;100006.99;;;26.12;57.52
50682;BME280;36779;52.168;20.878;2023-07-31T09:42:27;100006.45;;;26.11;57.18
50682;BME280;36779;52.168;20.878;2023-07-31T09:45:05;100011.68;;;26.09;57.24
50682;BME280;36779;52.168;20.878;2023-07-31T09:47:44;100007.79;;;26.35;57.48
50682;BME280;36779;52.168;20.878;2023-07-31T09:50:19;100010.39;;;26.58;57.30
50682;BME280;36779;52.168;20.878;2023-07-31T09:52:50;100011.25;;;26.69;56.94
50682;BME280;36779;52.168;20.878;2023-07-31T09:55:22;100009.97;;;26.84;56.90
50682;BME280;36779;52.168;20.878;2023-07-31T09:57:53;100007.98;;;26.96;56.29
50682;BME280;36779;52.168;20.878;2023-07-31T10:00:27;100007.89;;;27.02;56.30
50682;BME280;36779;52.168;20.878;2023-07-31T10:02:59;100005.73;;;27.07;55.87
50682;BME280;36779;52.168;20.878;2023-07-31T10:05:34;100005.90;;;27.07;55.99
50682;BME280;36779;52.168;20.878;2023-07-31T10:08:07;100000.98;;;27.23;55.73
50682;BME280;36779;52.168;20.878;2023-07-31T10:10:42;100005.02;;;27.43;55.75
50682;BME280;36779;52.168;20.878;2023-07-31T10:13:13;100005.16;;;27.63;55.46
50682;BME280;36779;52.168;20.878;2023-07-31T10:15:44;99997.82;;;27.70;54.96
50682;BME280;36779;52.168;20.878;2023-07-31T10:18:15;99998.02;;;27.72;54.58
50682;BME280;36779;52.168;20.878;2023-07-31T10:20:49;99999.66;;;27.74;54.43
50682;BME280;36779;52.168;20.878;2023-07-31T10:23:20;99995.91;;;27.87;54.58
50682;BME280;36779;52.168;20.878;2023-07-31T10:25:54;99994.77;;;28.13;54.47
50682;BME280;36779;52.168;20.878;2023-07-31T10:28:25;100003.16;;;28.30;54.21
50682;BME280;36779;52.168;20.878;2023-07-31T10:30:56;100000.78;;;28.31;53.73
50682;BME280;36779;52.168;20.878;2023-07-31T10:33:27;99992.01;;;28.39;53.83
50682;BME280;36779;52.168;20.878;2023-07-31T10:36:13;99994.73;;;28.62;53.75
50682;BME280;36779;52.168;20.878;2023-07-31T10:38:49;99998.28;;;28.77;53.37
50682;BME280;36779;52.168;20.878;2023-07-31T10:41:21;99995.58;;;28.75;52.63
50682;BME280;36779;52.168;20.878;2023-07-31T10:44:01;99992.08;;;28.70;52.59
50682;BME280;36779;52.168;20.878;2023-07-31T10:46:34;99997.33;;;28.67;52.23
50682;BME280;36779;52.168;20.878;2023-07-31T10:49:04;100002.12;;;28.64;52.11
50682;BME280;36779;52.168;20.878;2023-07-31T10:51:37;99999.71;;;28.43;51.57
50682;BME280;36779;52.168;20.878;2023-07-31T10:54:14;100000.52;;;28.31;51.75
50682;BME280;36779;52.168;20.878;2023-07-31T10:56:51;99996.31;;;28.29;51.52
50682;BME280;36779;52.168;20.878;2023-07-31T10:59:27;100001.10;;;28.09;51.15
50682;BME280;36779;52.168;20.878;2023-07-31T11:02:00;99996.93;;;27.92;51.00
50682;BME280;36779;52.168;20.878;2023-07-31T11:04:36;99998.02;;;27.75;50.96
50682;BME280;36779;52.168;20.878;2023-07-31T11:07:09;99995.04;;;27.69;51.08
50682;BME280;36779;52.168;20.878;2023-07-31T11:09:41;99992.08;;;27.70;51.14
50682;BME280;36779;52.168;20.878;2023-07-31T11:12:12;99989.97;;;27.76;51.25
50682;BME280;36779;52.168;20.878;2023-07-31T11:14:42;99990.23;;;27.86;51.14
50682;BME280;36779;52.168;20.878;2023-07-31T11:17:13;99993.94;;;28.07;51.19
50682;BME280;36779;52.168;20.878;2023-07-31T11:19:43;99988.89;;;28.32;51.07
50682;BME280;36779;52.168;20.878;2023-07-31T11:22:13;99992.44;;;28.46;50.76
50682;BME280;36779;52.168;20.878;2023-07-31T11:24:44;99993.84;;;28.53;50.58
50682;BME280;36779;52.168;20.878;2023-07-31T11:27:22;99989.83;;;28.59;50.46
50682;BME280;36779;52.168;20.878;2023-07-31T11:29:52;99988.64;;;28.57;50.18
50682;BME280;36779;52.168;20.878;2023-07-31T11:32:25;99985.89;;;28.42;49.83
50682;BME280;36779;52.168;20.878;2023-07-31T11:34:56;99983.80;;;28.24;49.76
50682;BME280;36779;52.168;20.878;2023-07-31T11:37:28;99981.83;;;28.08;49.67
50682;BME280;36779;52.168;20.878;2023-07-31T11:40:09;99979.59;;;27.95;49.56
50682;BME280;36779;52.168;20.878;2023-07-31T11:42:40;99981.01;;;27.75;49.39
50682;BME280;36779;52.168;20.878;2023-07-31T11:45:11;99980.73;;;27.58;49.53
50682;BME280;36779;52.168;20.878;2023-07-31T11:47:44;99982.98;;;27.48;49.47
50682;BME280;36779;52.168;20.878;2023-07-31T11:50:16;99981.05;;;27.32;49.36
50682;BME280;36779;52.168;20.878;2023-07-31T11:52:47;99978.25;;;27.14;49.29
50682;BME280;36779;52.168;20.878;2023-07-31T11:55:19;99977.68;;;27.03;49.43
50682;BME280;36779;52.168;20.878;2023-07-31T11:57:50;99976.64;;;26.93;49.28
50682;BME280;36779;52.168;20.878;2023-07-31T12:00:21;99973.98;;;26.74;49.09
50682;BME280;36779;52.168;20.878;2023-07-31T12:02:52;99971.63;;;26.52;48.94
50682;BME280;36779;52.168;20.878;2023-07-31T12:05:23;99973.73;;;26.36;49.11
50682;BME280;36779;52.168;20.878;2023-07-31T12:07:54;99968.78;;;26.26;49.23
50682;BME280;36779;52.168;20.878;2023-07-31T12:10:29;99969.83;;;26.22;49.10
50682;BME280;36779;52.168;20.878;2023-07-31T12:13:01;99971.04;;;26.15;49.24
50682;BME280;36779;52.168;20.878;2023-07-31T12:15:39;99970.16;;;26.15;49.22
50682;BME280;36779;52.168;20.878;2023-07-31T12:18:11;99970.89;;;26.16;49.25
50682;BME280;36779;52.168;20.878;2023-07-31T12:20:43;99972.61;;;26.22;49.30
50682;BME280;36779;52.168;20.878;2023-07-31T12:23:15;99971.85;;;26.20;49.10
50682;BME280;36779;52.168;20.878;2023-07-31T12:25:47;99969.67;;;26.13;49.04
50682;BME280;36779;52.168;20.878;2023-07-31T12:28:21;99966.69;;;26.02;48.85
50682;BME280;36779;52.168;20.878;2023-07-31T12:30:56;99962.16;;;25.92;48.86
50682;BME280;36779;52.168;20.878;2023-07-31T12:33:34;99959.11;;;25.89;48.90
50682;BME280;36779;52.168;20.878;2023-07-31T12:36:14;99955.01;;;25.88;49.00
50682;BME280;36779;52.168;20.878;2023-07-31T12:38:45;99953.09;;;25.80;48.80
50682;BME280;36779;52.168;20.878;2023-07-31T12:41:15;99952.73;;;25.60;48.61
50682;BME280;36779;52.168;20.878;2023-07-31T12:43:46;99945.75;;;25.51;48.73
50682;BME280;36779;52.168;20.878;2023-07-31T12:46:16;99946.05;;;25.40;48.69
50682;BME280;36779;52.168;20.878;2023-07-31T12:48:47;99942.50;;;25.28;48.71
50682;BME280;36779;52.168;20.878;2023-07-31T12:51:18;99940.41;;;25.23;48.71
50682;BME280;36779;52.168;20.878;2023-07-31T12:53:48;99939.48;;;25.21;48.77
50682;BME280;36779;52.168;20.878;2023-07-31T12:56:19;99936.43;;;25.17;48.73
50682;BME280;36779;52.168;20.878;2023-07-31T12:58:49;99936.20;;;25.17;48.69
50682;BME280;36779;52.168;20.878;2023-07-31T13:01:20;99933.63;;;25.15;48.77
50682;BME280;36779;52.168;20.878;2023-07-31T13:03:51;99931.35;;;25.18;48.69
50682;BME280;36779;52.168;20.878;2023-07-31T13:06:22;99929.62;;;25.27;48.69
50682;BME280;36779;52.168;20.878;2023-07-31T13:08:53;99922.81;;;25.35;48.53
50682;BME280;36779;52.168;20.878;2023-07-31T13:11:24;99918.19;;;25.43;48.61
50682;BME280;36779;52.168;20.878;2023-07-31T13:13:54;99919.66;;;25.62;48.70
50682;BME280;36779;52.168;20.878;2023-07-31T13:16:25;99911.59;;;25.85;48.64
50682;BME280;36779;52.168;20.878;2023-07-31T13:18:56;99905.19;;;26.04;48.70